Home > Products > Valid Products > TAF

000
FTUS46 KSTO 021726
TAFSAC
TAF
KSAC 021726Z 0218/0318 21012G21KT P6SM FEW250
     FM030600 18010KT P6SM SCT250=



000
FTUS46 KSTO 021726
TAFSMF
TAF
KSMF 021726Z 0218/0318 19015G22KT P6SM FEW250
     FM030600 16014G21KT P6SM SCT250=



000
FTUS46 KSTO 021726
TAFRDD
TAF
KRDD 021726Z 0218/0318 VRB05KT P6SM FEW250
     FM022100 18010G17KT P6SM SCT250
     FM030400 VRB04KT P6SM BKN250=



000
FTUS46 KSTO 021726
TAFSCK
TAF
KSCK 021726Z 0218/0318 28010KT P6SM SKC
     FM022200 26013G21KT P6SM SKC
     FM030600 27008KT P6SM SKC=



000
FTUS46 KSTO 021726
TAFRBL
TAF
KRBL 021726Z 0218/0318 16008KT P6SM FEW250
     FM022000 16013G21KT P6SM FEW250
     FM030400 17008KT P6SM BKN250=



000
FTUS46 KSTO 021726
TAFMHR
TAF
KMHR 021726Z 0218/0318 21010KT P6SM FEW250
     FM022100 22012G20KT P6SM FEW250
     FM030600 16008KT P6SM SCT250=



000
FTUS46 KSTO 021726
TAFSMF
TAF
KSMF 021726Z 0218/0318 19015G22KT P6SM FEW250
     FM030600 16014G21KT P6SM SCT250=



000
FTUS46 KSTO 021726
TAFSCK
TAF
KSCK 021726Z 0218/0318 28010KT P6SM SKC
     FM022200 26013G21KT P6SM SKC
     FM030600 27008KT P6SM SKC=



000
FTUS46 KSTO 021726
TAFRDD
TAF
KRDD 021726Z 0218/0318 VRB05KT P6SM FEW250
     FM022100 18010G17KT P6SM SCT250
     FM030400 VRB04KT P6SM BKN250=



000
FTUS46 KSTO 021726
TAFSAC
TAF
KSAC 021726Z 0218/0318 21012G21KT P6SM FEW250
     FM030600 18010KT P6SM SCT250=



000
FTUS46 KSTO 021726
TAFMHR
TAF
KMHR 021726Z 0218/0318 21010KT P6SM FEW250
     FM022100 22012G20KT P6SM FEW250
     FM030600 16008KT P6SM SCT250=



000
FTUS46 KSTO 021726
TAFRBL
TAF
KRBL 021726Z 0218/0318 16008KT P6SM FEW250
     FM022000 16013G21KT P6SM FEW250
     FM030400 17008KT P6SM BKN250=



000
FTUS46 KSTO 021120
TAFMHR
TAF
KMHR 021120Z 0212/0312 VRB05KT P6SM SKC
      TEMPO 0213/0216 SCT010
     FM021800 20008KT P6SM FEW250=



000
FTUS46 KSTO 021120
TAFRDD
TAF
KRDD 021120Z 0212/0312 VRB05KT P6SM SKC
     FM022100 18010G17KT P6SM SKC
     FM030200 18009KT P6SM BKN250
     FM030400 VRB04KT P6SM BKN250=



000
FTUS46 KSTO 021120
TAFRBL
TAF
KRBL 021120Z 0212/0312 VRB04KT P6SM SKC
     FM022000 16012G18KT P6SM FEW250
     FM030200 18006KT P6SM BKN250=



000
FTUS46 KSTO 021120
TAFSMF
TAF
KSMF 021120Z 0212/0312 16012KT P6SM SKC
     FM030000 18014KT P6SM SCT250=



000
FTUS46 KSTO 021120
TAFSAC
TAF
KSAC 021120Z 0212/0312 18007KT P6SM SKC
      TEMPO 0213/0216 SCT010
     FM021700 21009G15KT P6SM FEW250=



000
FTUS46 KSTO 021120
TAFRDD
TAF
KRDD 021120Z 0212/0312 VRB05KT P6SM SKC
     FM022100 18010G17KT P6SM SKC
     FM030200 18009KT P6SM BKN250
     FM030400 VRB04KT P6SM BKN250=



000
FTUS46 KSTO 021120
TAFMHR
TAF
KMHR 021120Z 0212/0312 VRB05KT P6SM SKC
      TEMPO 0213/0216 SCT010
     FM021800 20008KT P6SM FEW250=



000
FTUS46 KSTO 021120
TAFSAC
TAF
KSAC 021120Z 0212/0312 18007KT P6SM SKC
      TEMPO 0213/0216 SCT010
     FM021700 21009G15KT P6SM FEW250=



000
FTUS46 KSTO 021120
TAFSCK
TAF
KSCK 021120Z 0212/0312 29008KT P6SM SKC
     FM022000 26011G17KT P6SM SKC
     FM030600 27008KT P6SM SKC=



000
FTUS46 KSTO 021120
TAFSMF
TAF
KSMF 021120Z 0212/0312 16012KT P6SM SKC
     FM030000 18014KT P6SM SCT250=



000
FTUS46 KSTO 021120
TAFSCK
TAF
KSCK 021120Z 0212/0312 29008KT P6SM SKC
     FM022000 26011G17KT P6SM SKC
     FM030600 27008KT P6SM SKC=



000
FTUS46 KSTO 021120
TAFRBL
TAF
KRBL 021120Z 0212/0312 VRB04KT P6SM SKC
     FM022000 16012G18KT P6SM FEW250
     FM030200 18006KT P6SM BKN250=



000
FTUS46 KSTO 020520
TAFSAC
TAF
KSAC 020520Z 0206/0306 19009KT P6SM SKC
     FM020800 17006KT P6SM SKC
      TEMPO 0213/0216 SCT010
     FM021700 20009G15KT P6SM FEW250=



000
FTUS46 KSTO 020520
TAFSCK
TAF
KSCK 020520Z 0206/0306 28009KT P6SM SKC
     FM021200 VRB04KT P6SM SKC
     FM022000 27011G17KT P6SM SKC=



000
FTUS46 KSTO 020520
TAFRBL
TAF
KRBL 020520Z 0206/0306 VRB04KT P6SM SKC
     FM022000 16012G18KT P6SM FEW250
     FM030200 17010KT P6SM SCT100 BKN250=



000
FTUS46 KSTO 020520
TAFMHR
TAF
KMHR 020520Z 0206/0306 15005KT P6SM SKC
      TEMPO 0213/0216 SCT010
     FM021800 20007KT P6SM FEW250=



000
FTUS46 KSTO 020520
TAFSCK
TAF
KSCK 020520Z 0206/0306 28009KT P6SM SKC
     FM021200 VRB04KT P6SM SKC
     FM022000 27011G17KT P6SM SKC=



000
FTUS46 KSTO 020520
TAFSMF
TAF
KSMF 020520Z 0206/0306 17012KT P6SM SKC
     FM020700 15012KT P6SM SKC
     FM021800 17009KT P6SM FEW250
     FM030000 18013KT P6SM SCT250=



000
FTUS46 KSTO 020520
TAFRDD
TAF
KRDD 020520Z 0206/0306 VRB05KT P6SM SKC
     FM022100 18010G17KT P6SM SKC
     FM030200 18009KT P6SM SCT100 BKN250
     FM030400 21004KT P6SM SCT100 BKN250=



000
FTUS46 KSTO 020520
TAFSAC
TAF
KSAC 020520Z 0206/0306 19009KT P6SM SKC
     FM020800 17006KT P6SM SKC
      TEMPO 0213/0216 SCT010
     FM021700 20009G15KT P6SM FEW250=



000
FTUS46 KSTO 020520
TAFRBL
TAF
KRBL 020520Z 0206/0306 VRB04KT P6SM SKC
     FM022000 16012G18KT P6SM FEW250
     FM030200 17010KT P6SM SCT100 BKN250=



000
FTUS46 KSTO 020520
TAFRDD
TAF
KRDD 020520Z 0206/0306 VRB05KT P6SM SKC
     FM022100 18010G17KT P6SM SKC
     FM030200 18009KT P6SM SCT100 BKN250
     FM030400 21004KT P6SM SCT100 BKN250=



000
FTUS46 KSTO 020520
TAFMHR
TAF
KMHR 020520Z 0206/0306 15005KT P6SM SKC
      TEMPO 0213/0216 SCT010
     FM021800 20007KT P6SM FEW250=



000
FTUS46 KSTO 020520
TAFSMF
TAF
KSMF 020520Z 0206/0306 17012KT P6SM SKC
     FM020700 15012KT P6SM SKC
     FM021800 17009KT P6SM FEW250
     FM030000 18013KT P6SM SCT250=



000
FTUS46 KSTO 020432 AAA
TAFSAC
TAF AMD
KSAC 020432Z 0205/0224 21009G18KT P6SM SKC
     FM020700 18006KT P6SM SKC
      TEMPO 0213/0216 SCT010
     FM022100 21011KT P6SM SCT250=



000
FTUS46 KSTO 020011 AAA
TAFRDD
TAF AMD
KRDD 020011Z 0200/0224 18014G21KT P6SM SKC
     FM020200 17010KT P6SM SKC
     FM020500 VRB05KT P6SM SKC
     FM022100 18008KT P6SM SKC=



000
FTUS46 KSTO 012320
TAFRBL
TAF
KRBL 012320Z 0200/0224 17013KT P6SM SKC
     FM020400 VRB04KT P6SM SKC
     FM022100 15009KT P6SM SKC=



000
FTUS46 KSTO 012320
TAFMHR
TAF
KMHR 012320Z 0200/0224 23007KT P6SM SKC
     FM020900 15005KT P6SM SKC
      TEMPO 0213/0216 SCT010
     FM021900 17007KT P6SM SCT250
      AMD NOT SKED=



000
FTUS46 KSTO 012320
TAFRDD
TAF
KRDD 012320Z 0200/0224 18011KT P6SM SKC
     FM020500 32005KT P6SM SKC
     FM022100 18008KT P6SM SKC=



000
FTUS46 KSTO 012320
TAFSCK
TAF
KSCK 012320Z 0200/0224 28012KT P6SM SKC
     FM020800 VRB04KT P6SM SKC
     FM021300 VRB04KT P6SM SKC
     FM022100 27012KT P6SM SCT250=



000
FTUS46 KSTO 012320
TAFSAC
TAF
KSAC 012320Z 0200/0224 21008KT P6SM SKC
     FM020600 18006KT P6SM SKC
      TEMPO 0213/0216 SCT010
     FM022100 21011KT P6SM SCT250=



000
FTUS46 KSTO 012320
TAFSMF
TAF
KSMF 012320Z 0200/0224 18010KT P6SM SKC
     FM020700 15008KT P6SM SKC
      TEMPO 0213/0216 FEW010
     FM022000 18009KT P6SM SCT250=



000
FTUS46 KSTO 011733
TAFSCK
TAF
KSCK 011733Z 0118/0218 VRB04KT P6SM SKC
     FM012300 28012KT P6SM SKC
     FM020800 VRB04KT P6SM SCT250=



000
FTUS46 KSTO 011733
TAFSMF
TAF
KSMF 011733Z 0118/0218 18010KT P6SM SKC
     FM020700 15008KT P6SM SKC=



000
FTUS46 KSTO 011733
TAFMHR
TAF
KMHR 011733Z 0118/0218 23007KT P6SM SKC
      TEMPO 0213/0216 SCT010=



000
FTUS46 KSTO 011733
TAFRDD
TAF
KRDD 011733Z 0118/0218 VRB04KT P6SM SCT250
     FM012100 18011KT P6SM FEW250
     FM020500 32005KT P6SM SKC=



000
FTUS46 KSTO 011733
TAFSAC
TAF
KSAC 011733Z 0118/0218 21008KT P6SM SKC
     FM020600 18006KT P6SM SKC
      TEMPO 0213/0216 SCT010=



000
FTUS46 KSTO 011733
TAFRBL
TAF
KRBL 011733Z 0118/0218 VRB04KT P6SM SCT250
     FM012000 16013KT P6SM FEW250
     FM020400 VRB04KT P6SM SKC=



000
FTUS46 KSTO 011733
TAFMHR
TAF
KMHR 011733Z 0118/0218 23007KT P6SM SKC
      TEMPO 0213/0216 SCT010=



000
FTUS46 KSTO 011733
TAFRDD
TAF
KRDD 011733Z 0118/0218 VRB04KT P6SM SCT250
     FM012100 18011KT P6SM FEW250
     FM020500 32005KT P6SM SKC=



000
FTUS46 KSTO 011733
TAFRBL
TAF
KRBL 011733Z 0118/0218 VRB04KT P6SM SCT250
     FM012000 16013KT P6SM FEW250
     FM020400 VRB04KT P6SM SKC=



000
FTUS46 KSTO 011733
TAFSCK
TAF
KSCK 011733Z 0118/0218 VRB04KT P6SM SKC
     FM012300 28012KT P6SM SKC
     FM020800 VRB04KT P6SM SCT250=



000
FTUS46 KSTO 011733
TAFSMF
TAF
KSMF 011733Z 0118/0218 18010KT P6SM SKC
     FM020700 15008KT P6SM SKC=



000
FTUS46 KSTO 011733
TAFSAC
TAF
KSAC 011733Z 0118/0218 21008KT P6SM SKC
     FM020600 18006KT P6SM SKC
      TEMPO 0213/0216 SCT010=



000
FTUS46 KSTO 011137
TAFRDD
TAF
KRDD 011137Z 0112/0212 VRB04KT P6SM SKC
     FM012100 18011KT P6SM SKC
     FM020600 21005KT P6SM SKC=



000
FTUS46 KSTO 011137
TAFSMF
TAF
KSMF 011137Z 0112/0212 15008KT P6SM SKC
     FM020200 18011KT P6SM SKC=



000
FTUS46 KSTO 011137
TAFRDD
TAF
KRDD 011137Z 0112/0212 VRB04KT P6SM SKC
     FM012100 18011KT P6SM SKC
     FM020600 21005KT P6SM SKC=



000
FTUS46 KSTO 011137
TAFMHR
TAF
KMHR 011137Z 0112/0212 VRB05KT P6SM SKC
     FM012000 21007KT P6SM SKC=



000
FTUS46 KSTO 011137
TAFSAC
TAF
KSAC 011137Z 0112/0212 VRB05KT P6SM SKC
     FM012100 21008KT P6SM SKC
     FM020600 18006KT P6SM SKC=



000
FTUS46 KSTO 011137
TAFRBL
TAF
KRBL 011137Z 0112/0212 VRB04KT P6SM SKC
     FM012000 16011KT P6SM SKC
     FM020400 18007KT P6SM SKC=



000
FTUS46 KSTO 011137
TAFSMF
TAF
KSMF 011137Z 0112/0212 15008KT P6SM SKC
     FM020200 18011KT P6SM SKC=



000
FTUS46 KSTO 011137
TAFSAC
TAF
KSAC 011137Z 0112/0212 VRB05KT P6SM SKC
     FM012100 21008KT P6SM SKC
     FM020600 18006KT P6SM SKC=



000
FTUS46 KSTO 011137
TAFSCK
TAF
KSCK 011137Z 0112/0212 VRB04KT P6SM SKC
     FM012100 28009KT P6SM SKC=



000
FTUS46 KSTO 011137
TAFRBL
TAF
KRBL 011137Z 0112/0212 VRB04KT P6SM SKC
     FM012000 16011KT P6SM SKC
     FM020400 18007KT P6SM SKC=



000
FTUS46 KSTO 011137
TAFSCK
TAF
KSCK 011137Z 0112/0212 VRB04KT P6SM SKC
     FM012100 28009KT P6SM SKC=



000
FTUS46 KSTO 011137
TAFMHR
TAF
KMHR 011137Z 0112/0212 VRB05KT P6SM SKC
     FM012000 21007KT P6SM SKC=



000
FTUS46 KSTO 010520
TAFSAC
TAF
KSAC 010520Z 0106/0206 VRB05KT P6SM SKC
     FM012100 21008KT P6SM SKC=



000
FTUS46 KSTO 010520
TAFSCK
TAF
KSCK 010520Z 0106/0206 31005KT P6SM SKC
     FM012100 26009KT P6SM SKC=



000
FTUS46 KSTO 010520
TAFMHR
TAF
KMHR 010520Z 0106/0206 VRB05KT P6SM SKC
     FM012000 22007KT P6SM SKC=



000
FTUS46 KSTO 010520
TAFMHR
TAF
KMHR 010520Z 0106/0206 VRB05KT P6SM SKC
     FM012000 22007KT P6SM SKC=



000
FTUS46 KSTO 010520
TAFSAC
TAF
KSAC 010520Z 0106/0206 VRB05KT P6SM SKC
     FM012100 21008KT P6SM SKC=



000
FTUS46 KSTO 010520
TAFSCK
TAF
KSCK 010520Z 0106/0206 31005KT P6SM SKC
     FM012100 26009KT P6SM SKC=



000
FTUS46 KSTO 010520
TAFSMF
TAF
KSMF 010520Z 0106/0206 16008KT P6SM SKC
     FM020200 18011KT P6SM SKC=



000
FTUS46 KSTO 010520
TAFRBL
TAF
KRBL 010520Z 0106/0206 VRB04KT P6SM SKC
     FM012000 16011KT P6SM SKC=



000
FTUS46 KSTO 010520
TAFSMF
TAF
KSMF 010520Z 0106/0206 16008KT P6SM SKC
     FM020200 18011KT P6SM SKC=



000
FTUS46 KSTO 010520
TAFRDD
TAF
KRDD 010520Z 0106/0206 VRB04KT P6SM SKC
     FM012100 18011KT P6SM SKC
     FM020500 18006KT P6SM SKC=



000
FTUS46 KSTO 010520
TAFRBL
TAF
KRBL 010520Z 0106/0206 VRB04KT P6SM SKC
     FM012000 16011KT P6SM SKC=



000
FTUS46 KSTO 010520
TAFRDD
TAF
KRDD 010520Z 0106/0206 VRB04KT P6SM SKC
     FM012100 18011KT P6SM SKC
     FM020500 18006KT P6SM SKC=



000
FTUS46 KSTO 312324
TAFRDD
TAF
KRDD 312324Z 0100/0124 VRB06KT P6SM SKC
     FM012100 18010KT P6SM SKC=



000
FTUS46 KSTO 312324
TAFSAC
TAF
KSAC 312324Z 0100/0124 19005KT P6SM SKC
     FM012200 21008KT P6SM SKC=



000
FTUS46 KSTO 312324
TAFSCK
TAF
KSCK 312324Z 0100/0124 30007KT P6SM SKC=



000
FTUS46 KSTO 312324
TAFSMF
TAF
KSMF 312324Z 0100/0124 18006KT P6SM SKC=



000
FTUS46 KSTO 312324
TAFMHR
TAF
KMHR 312324Z 0100/0124 VRB05KT P6SM SKC=



000
FTUS46 KSTO 312324
TAFRBL
TAF
KRBL 312324Z 0100/0124 16008KT P6SM SKC
     FM010600 VRB04KT P6SM SKC
     FM012000 17010KT P6SM SKC=



000
FTUS46 KSTO 311740
TAFSCK
TAF
KSCK 311740Z 3118/0118 30006KT P6SM SKC=



000
FTUS46 KSTO 311740
TAFRBL
TAF
KRBL 311740Z 3118/0118 34005KT P6SM SKC
     FM312200 16007KT P6SM SKC
     FM010600 VRB04KT P6SM SKC=



000
FTUS46 KSTO 311740
TAFMHR
TAF
KMHR 311740Z 3118/0118 VRB06KT P6SM SKC
     FM311900 29005KT P6SM SKC
     FM010200 22007KT P6SM SKC=



000
FTUS46 KSTO 311740
TAFRDD
TAF
KRDD 311740Z 3118/0118 VRB03KT P6SM SKC
     FM312200 17006KT P6SM SKC
     FM010600 VRB03KT P6SM SKC=



000
FTUS46 KSTO 311740
TAFSAC
TAF
KSAC 311740Z 3118/0118 VRB04KT P6SM SKC
     FM311900 28006KT P6SM SKC
     FM010100 23007KT P6SM SKC=



000
FTUS46 KSTO 311740
TAFSMF
TAF
KSMF 311740Z 3118/0118 VRB05KT P6SM SKC
     FM010000 18006KT P6SM SKC=



000
FTUS46 KSTO 311740
TAFSCK
TAF
KSCK 311740Z 3118/0118 30006KT P6SM SKC=



000
FTUS46 KSTO 311740
TAFMHR
TAF
KMHR 311740Z 3118/0118 VRB06KT P6SM SKC
     FM311900 29005KT P6SM SKC
     FM010200 22007KT P6SM SKC=



000
FTUS46 KSTO 311740
TAFRBL
TAF
KRBL 311740Z 3118/0118 34005KT P6SM SKC
     FM312200 16007KT P6SM SKC
     FM010600 VRB04KT P6SM SKC=



000
FTUS46 KSTO 311740
TAFSMF
TAF
KSMF 311740Z 3118/0118 VRB05KT P6SM SKC
     FM010000 18006KT P6SM SKC=



000
FTUS46 KSTO 311740
TAFSAC
TAF
KSAC 311740Z 3118/0118 VRB04KT P6SM SKC
     FM311900 28006KT P6SM SKC
     FM010100 23007KT P6SM SKC=



000
FTUS46 KSTO 311740
TAFRDD
TAF
KRDD 311740Z 3118/0118 VRB03KT P6SM SKC
     FM312200 17006KT P6SM SKC
     FM010600 VRB03KT P6SM SKC=



000
FTUS46 KSTO 311120
TAFSAC
TAF
KSAC 311120Z 3112/0112 VRB04KT P6SM SKC
     FM311900 28006KT P6SM SKC
     FM010100 23007KT P6SM SKC=



000
FTUS46 KSTO 311120
TAFSCK
TAF
KSCK 311120Z 3112/0112 30006KT P6SM SKC=



000
FTUS46 KSTO 311120
TAFRDD
TAF
KRDD 311120Z 3112/0112 VRB03KT P6SM SKC
     FM312200 19006KT P6SM SKC
     FM010600 VRB03KT P6SM SKC=



000
FTUS46 KSTO 311120
TAFRDD
TAF
KRDD 311120Z 3112/0112 VRB03KT P6SM SKC
     FM312200 19006KT P6SM SKC
     FM010600 VRB03KT P6SM SKC=



000
FTUS46 KSTO 311120
TAFSCK
TAF
KSCK 311120Z 3112/0112 30006KT P6SM SKC=



000
FTUS46 KSTO 311120
TAFRBL
TAF
KRBL 311120Z 3112/0112 34005KT P6SM SKC
     FM312200 16007KT P6SM SKC
     FM010600 VRB04KT P6SM SKC=



000
FTUS46 KSTO 311120
TAFRBL
TAF
KRBL 311120Z 3112/0112 34005KT P6SM SKC
     FM312200 16007KT P6SM SKC
     FM010600 VRB04KT P6SM SKC=



000
FTUS46 KSTO 311120
TAFMHR
TAF
KMHR 311120Z 3112/0112 VRB06KT P6SM SKC
     FM311900 29005KT P6SM SKC
     FM010200 22007KT P6SM SKC=



000
FTUS46 KSTO 311120
TAFSAC
TAF
KSAC 311120Z 3112/0112 VRB04KT P6SM SKC
     FM311900 28006KT P6SM SKC
     FM010100 23007KT P6SM SKC=



000
FTUS46 KSTO 311120
TAFMHR
TAF
KMHR 311120Z 3112/0112 VRB06KT P6SM SKC
     FM311900 29005KT P6SM SKC
     FM010200 22007KT P6SM SKC=



000
FTUS46 KSTO 311120
TAFSMF
TAF
KSMF 311120Z 3112/0112 VRB05KT P6SM SKC
     FM311800 28006KT P6SM SKC
     FM010000 18006KT P6SM SKC=



000
FTUS46 KSTO 311120
TAFSMF
TAF
KSMF 311120Z 3112/0112 VRB05KT P6SM SKC
     FM311800 28006KT P6SM SKC
     FM010000 18006KT P6SM SKC=



000
FTUS46 KSTO 310520
TAFRDD
TAF
KRDD 310520Z 3106/0106 32006KT P6SM SKC
     FM312200 19006KT P6SM SKC=



000
FTUS46 KSTO 310520
TAFSAC
TAF
KSAC 310520Z 3106/0106 VRB05KT P6SM SKC
     FM311900 28006KT P6SM SKC
     FM010100 22007KT P6SM SKC=



000
FTUS46 KSTO 310520
TAFSMF
TAF
KSMF 310520Z 3106/0106 VRB05KT P6SM SKC
     FM311800 28006KT P6SM SKC
     FM010000 20006KT P6SM SKC=



000
FTUS46 KSTO 310520
TAFMHR
TAF
KMHR 310520Z 3106/0106 VRB06KT P6SM SKC
     FM311900 29005KT P6SM SKC
     FM010200 22007KT P6SM SKC=



000
FTUS46 KSTO 310520
TAFSCK
TAF
KSCK 310520Z 3106/0106 28010KT P6SM SKC=



000
FTUS46 KSTO 310520
TAFRBL
TAF
KRBL 310520Z 3106/0106 32006KT P6SM SKC
     FM312200 16007KT P6SM SKC=



000
FTUS46 KSTO 310520
TAFSMF
TAF
KSMF 310520Z 3106/0106 VRB05KT P6SM SKC
     FM311800 28006KT P6SM SKC
     FM010000 20006KT P6SM SKC=



000
FTUS46 KSTO 310520
TAFSAC
TAF
KSAC 310520Z 3106/0106 VRB05KT P6SM SKC
     FM311900 28006KT P6SM SKC
     FM010100 22007KT P6SM SKC=



000
FTUS46 KSTO 310520
TAFRBL
TAF
KRBL 310520Z 3106/0106 32006KT P6SM SKC
     FM312200 16007KT P6SM SKC=



000
FTUS46 KSTO 310520
TAFMHR
TAF
KMHR 310520Z 3106/0106 VRB06KT P6SM SKC
     FM311900 29005KT P6SM SKC
     FM010200 22007KT P6SM SKC=



000
FTUS46 KSTO 310520
TAFSCK
TAF
KSCK 310520Z 3106/0106 28010KT P6SM SKC=



000
FTUS46 KSTO 310520
TAFRDD
TAF
KRDD 310520Z 3106/0106 32006KT P6SM SKC
     FM312200 19006KT P6SM SKC=



000
FTUS46 KSTO 302333
TAFMHR
TAF
KMHR 302333Z 3100/3124 VRB06KT P6SM SKC=



000
FTUS46 KSTO 302333
TAFSAC
TAF
KSAC 302333Z 3100/3124 VRB06KT P6SM SKC=



000
FTUS46 KSTO 302333
TAFSMF
TAF
KSMF 302333Z 3100/3124 VRB05KT P6SM SKC=



000
FTUS46 KSTO 302333
TAFSCK
TAF
KSCK 302333Z 3100/3124 30012G18KT P6SM SKC
     FM310600 28006KT P6SM SKC=



000
FTUS46 KSTO 302333
TAFRDD
TAF
KRDD 302333Z 3100/3124 VRB05KT P6SM SKC=



000
FTUS46 KSTO 302333
TAFRBL
TAF
KRBL 302333Z 3100/3124 VRB06KT P6SM SKC=



    US Dept of Commerce
    National Oceanic and Atmospheric Administration
    National Weather Service
    1325 East West Highway
    Silver Spring, MD 20910
    Page Author: NWS Internet Services Team
Disclaimer
Information Quality
Credits
Glossary
Privacy Policy
Freedom of Information Act (FOIA)
About Us
Career Opportunities